createdAt,value
2022-07-28T00:02:49.872Z,15.28722
2022-07-28T00:07:50.849Z,15.05107
2022-07-28T00:12:51.766Z,15.0081
2022-07-28T00:17:52.700Z,15.02749
2022-07-28T00:22:53.641Z,14.93348
2022-07-28T00:33:00.128Z,15.22907
2022-07-28T00:43:01.646Z,15.05721
2022-07-28T00:48:02.540Z,14.75483
2022-07-28T00:53:03.491Z,14.5232
2022-07-28T00:58:05.722Z,14.3565
2022-07-28T01:03:06.697Z,14.25603
2022-07-28T01:08:07.707Z,14.15168
2022-07-28T01:13:08.664Z,14.10193
2022-07-28T01:18:09.587Z,14.04152
2022-07-28T01:23:10.496Z,13.99145
2022-07-28T01:28:11.537Z,13.91973
2022-07-28T01:33:12.587Z,13.87256
2022-07-28T01:38:13.551Z,13.8212
2022-07-28T01:43:14.443Z,13.77726
2022-07-28T01:48:15.394Z,13.72235
2022-07-28T01:53:16.339Z,13.66064
2022-07-28T01:58:17.321Z,13.61445
2022-07-28T02:03:18.235Z,13.56017
2022-07-28T02:08:19.148Z,13.52496
2022-07-28T02:13:20.080Z,13.48652
2022-07-28T02:18:21.033Z,13.44614
2022-07-28T02:23:22.014Z,13.37216
2022-07-28T02:28:22.997Z,13.31659
2022-07-28T02:33:29.574Z,13.31982
2022-07-28T02:39:00.106Z,13.26587
2022-07-28T02:44:01.075Z,13.18188
2022-07-28T02:49:02.241Z,13.10435
2022-07-28T02:54:03.252Z,13.04652
2022-07-28T02:59:04.157Z,12.9677
2022-07-28T03:04:05.081Z,12.98127
2022-07-28T03:09:05.987Z,12.96091
2022-07-28T03:14:08.562Z,12.88629
2022-07-28T03:19:09.508Z,12.85043
2022-07-28T03:24:10.749Z,12.801
2022-07-28T03:29:11.857Z,12.75126
2022-07-28T03:34:13.079Z,12.74996
2022-07-28T03:39:14.226Z,12.71314
2022-07-28T03:44:15.502Z,12.69214
2022-07-28T03:49:29.713Z,12.68374
2022-07-28T03:54:30.636Z,12.65822
2022-07-28T03:59:31.560Z,12.66339
2022-07-28T04:04:32.508Z,12.68923
2022-07-28T04:09:33.416Z,12.71604
2022-07-28T04:14:34.641Z,12.76127
2022-07-28T04:19:35.586Z,12.77936
2022-07-28T04:24:36.860Z,12.84623
2022-07-28T04:29:37.786Z,12.91052
2022-07-28T04:34:39.559Z,12.96253
2022-07-28T04:39:40.477Z,13.07527
2022-07-28T04:44:41.401Z,13.1709
2022-07-28T04:49:42.344Z,13.28946
2022-07-28T04:54:43.260Z,13.43935
2022-07-28T04:59:44.209Z,13.57406
2022-07-28T05:04:49.364Z,13.70716
2022-07-28T05:09:50.376Z,13.85027
2022-07-28T05:14:51.264Z,14.016
2022-07-28T05:19:52.417Z,14.16977
2022-07-28T05:24:53.345Z,14.31547
2022-07-28T05:29:54.262Z,14.52029
2022-07-28T05:34:55.217Z,14.67826
2022-07-28T05:39:56.118Z,14.8876
2022-07-28T05:44:57.043Z,15.14831
2022-07-28T05:49:57.975Z,16.47156
2022-07-28T05:54:58.922Z,16.86376
2022-07-28T05:59:59.837Z,17.73765
2022-07-28T06:05:00.703Z,16.96649
2022-07-28T06:10:01.867Z,16.64408
2022-07-28T06:15:03.399Z,16.54942
2022-07-28T06:20:04.917Z,16.6906
2022-07-28T06:25:05.871Z,16.83985
2022-07-28T06:30:06.811Z,16.87474
2022-07-28T06:35:07.728Z,16.93968
2022-07-28T06:40:08.678Z,17.08506
2022-07-28T06:45:09.701Z,17.11058
2022-07-28T06:50:24.694Z,17.53283
2022-07-28T06:55:34.599Z,17.55835
2022-07-28T07:00:36.752Z,17.44786
2022-07-28T07:05:37.726Z,17.54704
2022-07-28T07:10:38.632Z,17.79063
2022-07-28T07:15:39.558Z,18.15538
2022-07-28T07:20:40.530Z,18.18025
2022-07-28T07:25:41.458Z,18.30237
2022-07-28T07:30:42.696Z,18.56115
2022-07-28T07:35:43.630Z,18.49201
2022-07-28T07:40:44.551Z,18.41642
2022-07-28T07:45:45.479Z,18.59733
2022-07-28T07:50:50.467Z,18.54597
2022-07-28T07:55:54.403Z,18.63869
2022-07-28T08:00:55.314Z,18.98017
2022-07-28T08:05:56.293Z,19.16788
2022-07-28T08:10:58.445Z,19.21505
2022-07-28T08:15:59.733Z,19.39403
2022-07-28T08:21:00.734Z,19.48869
2022-07-28T08:26:06.769Z,20.00496
2022-07-28T08:31:07.895Z,20.13613
2022-07-28T08:36:09.402Z,20.64756
2022-07-28T08:41:10.681Z,20.82008
2022-07-28T08:46:12.011Z,21.24137
2022-07-28T08:51:13.058Z,21.16383
2022-07-28T08:56:14.015Z,21.4811
2022-07-28T09:01:20.074Z,21.37287
2022-07-28T09:06:21.093Z,21.16287
2022-07-28T09:11:24.753Z,20.74803
2022-07-28T09:16:25.740Z,21.35057
2022-07-28T09:21:26.777Z,21.60258
2022-07-28T09:26:27.823Z,21.20422
2022-07-28T09:31:28.853Z,21.1144
2022-07-28T09:36:30.211Z,21.41551
2022-07-28T09:41:31.249Z,21.69272
2022-07-28T09:46:32.850Z,21.47787
2022-07-28T09:51:33.999Z,21.32764
2022-07-28T09:56:35.447Z,20.938
2022-07-28T10:01:37.172Z,20.92443
2022-07-28T10:06:38.380Z,21.26108
2022-07-28T10:11:41.700Z,22.6009
2022-07-28T10:16:42.935Z,22.57764
2022-07-28T10:21:43.930Z,22.47651
2022-07-28T10:26:44.855Z,22.48814
2022-07-28T10:31:45.779Z,22.43516
2022-07-28T10:36:46.739Z,22.7786
2022-07-28T10:41:47.685Z,22.90848
2022-07-28T10:46:48.644Z,22.5967
2022-07-28T10:52:06.381Z,22.5547
2022-07-28T10:57:10.037Z,22.1922
2022-07-28T11:02:11.104Z,22.24777
2022-07-28T11:07:12.718Z,22.48297
2022-07-28T11:12:13.658Z,22.80024
2022-07-28T11:17:14.962Z,22.97729
2022-07-28T11:22:15.964Z,23.22478
2022-07-28T11:27:19.724Z,22.92431
2022-07-28T11:32:20.658Z,22.93497
2022-07-28T11:37:28.142Z,22.97632
2022-07-28T11:42:29.355Z,23.17147
2022-07-28T11:52:32.384Z,24.08096
2022-07-28T12:02:33.906Z,23.74753
2022-07-28T12:07:36.806Z,24.00406
2022-07-28T12:12:37.719Z,24.60533
2022-07-28T12:17:38.648Z,24.79822
2022-07-28T12:22:41.836Z,25.12648
2022-07-28T12:27:45.815Z,25.11323
2022-07-28T12:32:47.024Z,25.47316
2022-07-28T12:37:47.940Z,25.70417
2022-07-28T12:42:52.019Z,25.99916
2022-07-28T12:47:54.663Z,26.42564
2022-07-28T12:52:55.672Z,26.81756
2022-07-28T12:57:56.612Z,27.11998
2022-07-28T13:02:57.591Z,28.18169
2022-07-28T13:07:58.929Z,28.57071
2022-07-28T13:13:02.907Z,29.03049
2022-07-28T13:18:03.866Z,28.8586
2022-07-28T13:23:04.808Z,29.00593
2022-07-28T13:28:06.440Z,29.27896
2022-07-28T13:33:11.966Z,29.15294
2022-07-28T13:38:14.985Z,29.0838
2022-07-28T13:43:15.934Z,29.19786
2022-07-28T13:48:16.984Z,29.33873
2022-07-28T13:53:17.946Z,29.54423
2022-07-28T13:58:19.430Z,29.94197
2022-07-28T14:03:26.325Z,30.47026
2022-07-28T14:08:27.270Z,30.67834
2022-07-28T14:13:28.228Z,30.77528
2022-07-28T14:18:32.753Z,30.66833
2022-07-28T14:23:33.705Z,30.34619
2022-07-28T14:28:34.815Z,30.12259
2022-07-28T14:33:35.727Z,30.28092
2022-07-28T14:38:52.281Z,30.51614
2022-07-28T14:43:54.268Z,30.68351
2022-07-28T14:48:55.195Z,30.84152
2022-07-28T14:53:56.174Z,30.93522
2022-07-28T14:58:57.205Z,30.80468
2022-07-28T15:03:58.202Z,31.05186
2022-07-28T15:08:59.241Z,30.68254
2022-07-28T15:14:00.291Z,30.68998
2022-07-28T15:19:01.421Z,30.59821
2022-07-28T15:24:02.557Z,30.26896
2022-07-28T15:29:03.720Z,30.1045
2022-07-28T15:34:04.823Z,30.09642
2022-07-28T15:39:08.005Z,29.73874
2022-07-28T15:44:10.252Z,29.73518
2022-07-28T15:49:11.222Z,29.92356
2022-07-28T15:54:12.476Z,30.03826
2022-07-28T15:59:13.680Z,29.38494
2022-07-28T16:04:14.864Z,29.05924
2022-07-28T16:09:16.020Z,28.80205
2022-07-28T16:14:17.898Z,28.53323
2022-07-28T16:19:38.597Z,28.39203
2022-07-28T16:24:47.485Z,28.45374
2022-07-28T16:29:48.438Z,28.32838
2022-07-28T16:39:52.946Z,27.91998
2022-07-28T16:44:53.910Z,27.63629
2022-07-28T16:49:54.842Z,27.2867
2022-07-28T16:54:55.786Z,27.23339
2022-07-28T16:59:56.757Z,26.91707
2022-07-28T17:04:57.787Z,26.57459
2022-07-28T17:09:58.772Z,26.34293
2022-07-28T17:14:59.727Z,26.17815
2022-07-28T17:20:00.730Z,26.12839
2022-07-28T17:25:02.275Z,25.83955
2022-07-28T17:35:03.662Z,25.45894
2022-07-28T17:40:04.930Z,25.22728
2022-07-28T17:45:05.915Z,25.415
2022-07-28T17:50:06.876Z,25.2121
2022-07-28T17:55:07.877Z,24.91098
2022-07-28T18:00:08.889Z,24.63409
2022-07-28T18:05:10.046Z,24.79757
2022-07-28T18:10:12.197Z,24.92358
2022-07-28T18:15:13.264Z,24.49387
2022-07-28T18:20:14.233Z,24.19275
2022-07-28T18:25:15.209Z,23.95528
2022-07-28T18:30:17.010Z,23.75238
2022-07-28T18:35:17.927Z,23.51361
2022-07-28T18:40:18.839Z,23.47291
2022-07-28T18:45:19.792Z,23.2461
2022-07-28T18:50:29.200Z,22.96825
2022-07-28T18:55:32.829Z,22.74403
2022-07-28T19:00:33.824Z,22.70299
2022-07-28T19:05:36.701Z,22.46973
2022-07-28T19:10:38.404Z,22.28589
2022-07-28T19:15:39.465Z,22.12338
2022-07-28T19:20:40.444Z,21.96281
2022-07-28T19:25:41.363Z,21.81032
2022-07-28T19:30:42.398Z,21.65556
2022-07-28T19:35:43.389Z,21.65072
2022-07-28T19:40:44.304Z,21.49628
2022-07-28T19:45:45.343Z,21.36899
2022-07-28T19:50:50.086Z,21.35607
2022-07-28T19:55:52.268Z,21.39451
2022-07-28T20:00:54.415Z,21.16642
2022-07-28T20:11:00.233Z,21.18677
2022-07-28T20:16:01.167Z,20.90634
2022-07-28T20:21:02.152Z,20.7532
2022-07-28T20:26:08.155Z,20.63593
2022-07-28T20:31:14.931Z,20.86628
2022-07-28T20:36:17.850Z,20.71669
2022-07-28T20:41:18.769Z,20.55031
2022-07-28T20:46:19.837Z,20.39943
2022-07-28T20:51:20.783Z,20.16714
2022-07-28T20:56:21.712Z,20.03791
2022-07-28T21:01:23.033Z,19.93679
2022-07-28T21:06:24.009Z,19.86571
2022-07-28T21:11:25.559Z,19.77267
2022-07-28T21:16:26.530Z,19.89027
2022-07-28T21:21:27.467Z,19.74876
2022-07-28T21:26:28.401Z,19.64247
2022-07-28T21:31:29.333Z,19.55621
2022-07-28T21:36:30.651Z,19.5239
2022-07-28T21:46:32.015Z,20.02337
2022-07-28T21:51:32.960Z,20.10834
2022-07-28T22:01:34.501Z,20.34096
2022-07-28T22:06:35.572Z,20.23983
2022-07-28T22:11:36.565Z,20.10414
2022-07-28T22:16:39.321Z,20.19816
2022-07-28T22:21:40.348Z,20.20203
2022-07-28T22:36:42.293Z,20.08379
2022-07-28T22:52:24.213Z,20.01821
2022-07-28T22:57:25.394Z,19.67575
2022-07-28T23:02:26.385Z,19.25834
2022-07-28T23:07:50.778Z,18.76727
2022-07-28T23:12:56.173Z,18.86484
2022-07-28T23:22:58.790Z,19.07096
2022-07-28T23:27:59.702Z,18.9679
2022-07-28T23:38:01.283Z,18.80151
2022-07-28T23:43:02.557Z,18.26328
2022-07-28T23:48:03.580Z,17.93375
2022-07-28T23:53:04.597Z,17.70341
2022-07-28T23:58:05.855Z,17.55803
